createdAt,value
2018-01-10T00:00:25.161Z,90.04
2018-01-10T00:01:25.148Z,90.23
2018-01-10T00:02:25.143Z,90.80
2018-01-10T00:03:25.133Z,90.70
2018-01-10T00:04:25.126Z,90.04
2018-01-10T00:05:25.121Z,90.80
2018-01-10T00:06:25.109Z,90.33
2018-01-10T00:07:25.105Z,90.52
2018-01-10T00:08:25.097Z,90.33
2018-01-10T00:09:25.088Z,90.80
2018-01-10T00:09:37.088Z,90.80
2018-01-10T00:11:25.079Z,90.80
2018-01-10T00:12:25.068Z,90.70
2018-01-10T00:13:25.057Z,90.70
2018-01-10T00:14:25.049Z,90.52
2018-01-10T00:15:25.043Z,90.52
2018-01-10T00:16:25.029Z,90.23
2018-01-10T00:17:25.025Z,90.42
2018-01-10T00:18:25.019Z,90.42
2018-01-10T00:19:25.013Z,90.33
2018-01-10T00:20:25.007Z,90.33
2018-01-10T00:21:25.004Z,90.42
2018-01-10T00:22:24.994Z,90.42
2018-01-10T00:23:24.984Z,90.42
2018-01-10T00:24:24.976Z,90.70
2018-01-10T00:25:24.981Z,90.70
2018-01-10T00:26:24.958Z,90.61
2018-01-10T00:27:24.954Z,90.52
2018-01-10T00:28:24.950Z,90.42
2018-01-10T00:29:24.938Z,90.61
2018-01-10T00:30:24.932Z,90.33
2018-01-10T00:31:24.922Z,90.61
2018-01-10T00:32:24.911Z,90.61
2018-01-10T00:33:24.909Z,90.80
2018-01-10T00:34:24.901Z,90.61
2018-01-10T00:35:24.894Z,90.42
2018-01-10T00:36:24.891Z,90.80
2018-01-10T00:37:24.877Z,90.04
2018-01-10T00:38:24.866Z,90.04
2018-01-10T00:39:24.851Z,90.14
2018-01-10T00:40:24.849Z,89.85
2018-01-10T00:41:24.847Z,89.85
2018-01-10T00:42:24.839Z,90.23
2018-01-10T00:43:24.820Z,90.89
2018-01-10T00:44:24.823Z,90.70
2018-01-10T00:45:24.817Z,90.14
2018-01-10T00:46:24.808Z,90.80
2018-01-10T00:47:24.800Z,90.70
2018-01-10T00:48:24.802Z,90.70
2018-01-10T00:49:24.787Z,90.52
2018-01-10T00:50:24.781Z,90.52
2018-01-10T00:51:24.774Z,90.42
2018-01-10T00:52:24.758Z,90.61
2018-01-10T00:53:24.752Z,90.61
2018-01-10T00:54:24.763Z,90.61
2018-01-10T00:55:24.740Z,90.42
2018-01-10T00:56:24.731Z,90.61
2018-01-10T00:57:25.442Z,90.61
2018-01-10T00:58:24.717Z,90.61
2018-01-10T00:59:24.712Z,90.23
2018-01-10T01:00:24.700Z,90.42
2018-01-10T01:01:24.692Z,90.42
2018-01-10T01:02:24.689Z,90.33
2018-01-10T01:03:24.694Z,90.61
2018-01-10T01:04:24.673Z,90.42
2018-01-10T01:05:24.668Z,90.52
2018-01-10T01:06:24.664Z,90.61
2018-01-10T01:07:24.652Z,90.42
2018-01-10T01:08:24.634Z,90.42
2018-01-10T01:09:24.632Z,90.61
2018-01-10T01:10:24.627Z,90.42
2018-01-10T01:11:24.618Z,90.52
2018-01-10T01:12:24.611Z,90.33
2018-01-10T01:13:24.602Z,90.42
2018-01-10T01:14:24.595Z,90.70
2018-01-10T01:15:24.589Z,90.42
2018-01-10T01:16:24.581Z,90.42
2018-01-10T01:17:24.576Z,90.61
2018-01-10T01:18:24.567Z,90.61
2018-01-10T01:19:24.564Z,90.61
2018-01-10T01:20:24.550Z,90.42
2018-01-10T01:21:24.552Z,90.42
2018-01-10T01:22:24.535Z,90.61
2018-01-10T01:23:24.523Z,90.70
2018-01-10T01:24:24.521Z,90.61
2018-01-10T01:25:24.516Z,90.52
2018-01-10T01:26:24.505Z,90.42
2018-01-10T01:27:24.498Z,90.42
2018-01-10T01:28:24.487Z,90.42
2018-01-10T01:29:24.492Z,90.80
2018-01-10T01:30:24.473Z,90.61
2018-01-10T01:31:24.470Z,90.80
2018-01-10T01:32:24.464Z,90.80
2018-01-10T01:33:24.454Z,90.80
2018-01-10T01:34:24.451Z,91.28
2018-01-10T01:35:24.433Z,91.28
2018-01-10T01:36:24.434Z,91.08
2018-01-10T01:37:24.423Z,91.37
2018-01-10T01:38:24.412Z,91.47
2018-01-10T01:39:24.408Z,91.18
2018-01-10T01:40:24.400Z,90.99
2018-01-10T01:41:24.395Z,91.28
2018-01-10T01:42:24.392Z,90.99
2018-01-10T01:43:24.376Z,91.18
2018-01-10T01:44:24.376Z,91.28
2018-01-10T01:45:24.363Z,90.99
2018-01-10T01:46:24.359Z,91.18
2018-01-10T01:47:24.358Z,90.80
2018-01-10T01:48:24.351Z,90.99
2018-01-10T01:49:24.331Z,91.18
2018-01-10T01:50:24.325Z,91.08
2018-01-10T01:51:24.320Z,91.18
2018-01-10T01:52:24.324Z,90.99
2018-01-10T01:53:24.305Z,90.99
2018-01-10T01:54:24.295Z,91.37
2018-01-10T01:55:24.294Z,91.37
2018-01-10T01:56:24.280Z,91.28
2018-01-10T01:57:24.269Z,91.08
2018-01-10T01:58:24.274Z,91.18
2018-01-10T01:59:24.263Z,91.32
2018-01-10T02:00:24.252Z,91.32
2018-01-10T02:01:24.240Z,90.94
2018-01-10T02:02:24.233Z,91.13
2018-01-10T02:03:24.232Z,91.47
2018-01-10T02:04:24.218Z,91.18
2018-01-10T02:05:24.207Z,91.03
2018-01-10T02:06:24.207Z,91.13
2018-01-10T02:07:24.200Z,91.22
2018-01-10T02:08:24.194Z,91.22
2018-01-10T02:09:24.189Z,91.22
2018-01-10T02:10:24.180Z,91.22
2018-01-10T02:11:24.173Z,91.32
2018-01-10T02:12:24.162Z,91.22
2018-01-10T02:13:24.156Z,91.03
2018-01-10T02:14:24.152Z,91.22
2018-01-10T02:15:24.143Z,91.32
2018-01-10T02:16:24.139Z,91.32
2018-01-10T02:17:24.130Z,91.13
2018-01-10T02:18:24.121Z,91.13
2018-01-10T02:19:24.115Z,90.84
2018-01-10T02:20:24.106Z,90.84
2018-01-10T02:21:24.094Z,90.84
2018-01-10T02:22:24.090Z,90.94
2018-01-10T02:23:24.084Z,90.75
2018-01-10T02:24:26.974Z,90.75
2018-01-10T02:25:24.066Z,90.66
2018-01-10T02:26:24.062Z,91.22
2018-01-10T02:27:24.058Z,91.13
2018-01-10T02:28:24.045Z,91.22
2018-01-10T02:29:24.038Z,91.22
2018-01-10T02:30:24.035Z,91.03
2018-01-10T02:31:24.034Z,91.13
2018-01-10T02:32:24.013Z,91.32
2018-01-10T02:33:24.009Z,91.13
2018-01-10T02:34:24.005Z,91.42
2018-01-10T02:35:23.997Z,91.32
2018-01-10T02:36:23.989Z,91.22
2018-01-10T02:37:23.981Z,91.03
2018-01-10T02:38:23.970Z,90.84
2018-01-10T02:39:23.970Z,90.94
2018-01-10T02:40:23.959Z,90.94
2018-01-10T02:41:23.958Z,91.22
2018-01-10T02:42:23.945Z,91.42
2018-01-10T02:43:23.935Z,91.61
2018-01-10T02:44:23.938Z,91.22
2018-01-10T02:45:23.923Z,91.61
2018-01-10T02:46:23.914Z,91.32
2018-01-10T02:47:23.911Z,91.32
2018-01-10T02:48:23.905Z,91.42
2018-01-10T02:49:23.910Z,91.32
2018-01-10T02:50:23.889Z,91.32
2018-01-10T02:50:35.886Z,91.32
2018-01-10T02:52:23.875Z,91.32
2018-01-10T02:53:23.870Z,91.22
2018-01-10T02:54:23.869Z,92.08
2018-01-10T02:55:23.855Z,91.80
2018-01-10T02:56:23.851Z,91.89
2018-01-10T02:57:23.844Z,91.80
2018-01-10T02:58:23.827Z,91.51
2018-01-10T02:59:24.492Z,91.61
2018-01-10T03:00:23.808Z,91.61
2018-01-10T03:01:23.807Z,91.70
2018-01-10T03:02:23.802Z,92.27
2018-01-10T03:03:23.799Z,91.99
2018-01-10T03:04:23.787Z,91.99
2018-01-10T03:05:23.780Z,91.89
2018-01-10T03:06:23.770Z,91.51
2018-01-10T03:07:23.764Z,91.61
2018-01-10T03:08:23.751Z,91.61
2018-01-10T03:09:23.763Z,91.51
2018-01-10T03:10:23.745Z,92.27
2018-01-10T03:11:23.738Z,91.70
2018-01-10T03:12:23.731Z,92.27
2018-01-10T03:13:23.731Z,92.08
2018-01-10T03:14:23.713Z,92.27
2018-01-10T03:15:23.715Z,92.08
2018-01-10T03:16:23.701Z,92.08
2018-01-10T03:17:23.693Z,92.27
2018-01-10T03:18:23.685Z,92.65
2018-01-10T03:19:23.679Z,91.89
2018-01-10T03:20:23.665Z,92.08
2018-01-10T03:21:23.665Z,91.89
2018-01-10T03:22:23.660Z,92.18
2018-01-10T03:23:23.652Z,92.08
2018-01-10T03:24:23.644Z,92.08
2018-01-10T03:25:23.641Z,91.70
2018-01-10T03:26:23.631Z,92.27
2018-01-10T03:27:23.626Z,92.65
2018-01-10T03:28:23.613Z,92.75
2018-01-10T03:29:23.614Z,92.65
2018-01-10T03:30:23.603Z,92.46
2018-01-10T03:31:23.593Z,92.56
2018-01-10T03:32:23.591Z,92.65
2018-01-10T03:33:23.577Z,91.80
2018-01-10T03:34:23.569Z,91.80
2018-01-10T03:35:23.561Z,91.89
2018-01-10T03:36:23.556Z,91.89
2018-01-10T03:37:23.548Z,92.36
2018-01-10T03:38:23.545Z,92.08
2018-01-10T03:39:23.536Z,92.08
2018-01-10T03:40:23.526Z,92.27
2018-01-10T03:41:23.522Z,92.27
2018-01-10T03:42:23.520Z,92.65
2018-01-10T03:43:23.512Z,91.89
2018-01-10T03:44:23.499Z,92.46
2018-01-10T03:45:23.493Z,92.56
2018-01-10T03:46:23.488Z,92.46
2018-01-10T03:47:23.479Z,92.65
2018-01-10T03:48:23.471Z,92.27
2018-01-10T03:49:23.468Z,92.27
2018-01-10T03:50:23.463Z,92.08
2018-01-10T03:51:23.460Z,92.27
2018-01-10T03:52:23.444Z,92.18
2018-01-10T03:53:23.438Z,92.27
2018-01-10T03:54:23.427Z,91.89
2018-01-10T03:55:23.425Z,92.08
2018-01-10T03:56:23.417Z,92.08
2018-01-10T03:57:23.407Z,92.36
2018-01-10T03:58:23.397Z,92.46
2018-01-10T03:59:23.394Z,92.27
2018-01-10T04:00:23.383Z,92.18
2018-01-10T04:01:23.378Z,92.27
2018-01-10T04:02:23.380Z,92.18
2018-01-10T04:03:23.366Z,92.08
2018-01-10T04:04:23.361Z,91.61
2018-01-10T04:05:23.356Z,91.70
2018-01-10T04:06:23.350Z,91.99
2018-01-10T04:07:23.338Z,91.80
2018-01-10T04:08:23.330Z,91.61
2018-01-10T04:09:24.016Z,91.61
2018-01-10T04:10:23.322Z,91.99
2018-01-10T04:11:23.311Z,91.89
2018-01-10T04:12:23.302Z,91.51
2018-01-10T04:13:23.292Z,91.89
2018-01-10T04:14:23.275Z,92.27
2018-01-10T04:15:23.272Z,92.18
2018-01-10T04:16:23.269Z,91.99
2018-01-10T04:17:23.265Z,92.27
2018-01-10T04:18:23.262Z,91.70
2018-01-10T04:19:23.251Z,91.61
2018-01-10T04:20:23.236Z,91.99
2018-01-10T04:21:23.236Z,91.80
2018-01-10T04:22:23.223Z,91.51
2018-01-10T04:23:23.225Z,91.70
2018-01-10T04:24:23.210Z,92.08
2018-01-10T04:25:23.219Z,91.99
2018-01-10T04:26:23.206Z,91.70
2018-01-10T04:27:23.194Z,91.61
2018-01-10T04:28:23.188Z,91.80
2018-01-10T04:29:23.170Z,91.89
2018-01-10T04:30:23.166Z,91.89
2018-01-10T04:31:23.164Z,91.99
2018-01-10T04:32:23.155Z,91.89
2018-01-10T04:33:23.147Z,91.61
2018-01-10T04:34:23.142Z,91.80
2018-01-10T04:35:23.135Z,91.51
2018-01-10T04:36:23.126Z,91.70
2018-01-10T04:37:23.123Z,91.89
2018-01-10T04:38:23.113Z,91.89
2018-01-10T04:39:23.111Z,91.80
2018-01-10T04:40:23.104Z,91.70
2018-01-10T04:41:23.097Z,91.80
2018-01-10T04:42:23.090Z,91.61
2018-01-10T04:43:23.071Z,91.89
2018-01-10T04:44:23.074Z,91.80
2018-01-10T04:45:23.063Z,91.80
2018-01-10T04:46:23.056Z,91.70
2018-01-10T04:47:23.051Z,91.61
2018-01-10T04:48:23.053Z,91.61
2018-01-10T04:49:23.037Z,91.80
2018-01-10T04:50:23.032Z,92.08
2018-01-10T04:51:23.023Z,91.70
2018-01-10T04:52:23.023Z,91.89
2018-01-10T04:53:22.999Z,91.61
2018-01-10T04:54:23.009Z,91.80
2018-01-10T04:55:22.991Z,91.51
2018-01-10T04:56:22.985Z,91.51
2018-01-10T04:57:22.976Z,91.80
2018-01-10T04:58:22.970Z,91.70
2018-01-10T04:59:22.963Z,91.80
2018-01-10T05:00:22.955Z,91.42
2018-01-10T05:01:22.955Z,91.42
2018-01-10T05:02:22.946Z,91.70
2018-01-10T05:03:22.932Z,92.08
2018-01-10T05:04:22.926Z,91.99
2018-01-10T05:05:22.924Z,91.42
2018-01-10T05:06:22.915Z,91.89
2018-01-10T05:07:22.910Z,92.27
2018-01-10T05:08:22.905Z,92.08
2018-01-10T05:09:22.892Z,92.18
2018-01-10T05:10:22.884Z,92.46
2018-01-10T05:11:22.877Z,92.27
2018-01-10T05:12:22.872Z,92.36
2018-01-10T05:13:22.863Z,92.18
2018-01-10T05:14:22.858Z,92.46
2018-01-10T05:15:22.849Z,92.27
2018-01-10T05:16:22.850Z,92.08
2018-01-10T05:17:22.841Z,92.08
2018-01-10T05:18:22.835Z,91.99
2018-01-10T05:19:22.822Z,91.70
2018-01-10T05:20:22.816Z,92.08
2018-01-10T05:21:22.816Z,91.70
2018-01-10T05:22:22.802Z,91.80
2018-01-10T05:23:22.794Z,91.80
2018-01-10T05:24:22.785Z,91.89
2018-01-10T05:25:22.782Z,91.80
2018-01-10T05:26:23.538Z,91.80
2018-01-10T05:27:23.532Z,91.89
2018-01-10T05:28:22.764Z,91.61
2018-01-10T05:29:22.750Z,91.70
2018-01-10T05:30:22.749Z,91.89
2018-01-10T05:31:22.735Z,91.80
2018-01-10T05:32:22.728Z,91.51
2018-01-10T05:33:22.716Z,91.89
2018-01-10T05:34:22.726Z,91.61
2018-01-10T05:35:22.710Z,91.80
2018-01-10T05:36:22.711Z,91.51
2018-01-10T05:37:22.692Z,91.80
2018-01-10T05:38:22.688Z,91.70
2018-01-10T05:39:22.700Z,91.80
2018-01-10T05:40:22.689Z,91.70
2018-01-10T05:41:22.664Z,91.80
2018-01-10T05:42:22.656Z,91.51
2018-01-10T05:43:22.649Z,91.99
2018-01-10T05:44:22.642Z,91.70
2018-01-10T05:45:22.635Z,91.99
2018-01-10T05:46:22.627Z,92.08
2018-01-10T05:47:22.620Z,92.18
2018-01-10T05:48:22.614Z,92.56
2018-01-10T05:49:22.611Z,92.18
2018-01-10T05:50:22.601Z,92.84
2018-01-10T05:51:22.597Z,92.18
2018-01-10T05:52:22.591Z,93.04
2018-01-10T05:53:22.610Z,93.13
2018-01-10T05:54:22.576Z,93.89
2018-01-10T05:55:22.603Z,93.70
2018-01-10T05:56:22.573Z,93.41
2018-01-10T05:57:22.580Z,93.23
2018-01-10T05:58:22.542Z,93.89
2018-01-10T05:59:22.537Z,94.08
2018-01-10T06:00:22.521Z,94.27
2018-01-10T06:01:22.512Z,94.18
2018-01-10T06:02:22.509Z,94.37
2018-01-10T06:03:22.513Z,94.27
2018-01-10T06:04:22.501Z,94.27
2018-01-10T06:05:22.495Z,94.74
2018-01-10T06:06:22.493Z,94.84
2018-01-10T06:07:22.482Z,94.84
2018-01-10T06:08:22.475Z,95.03
2018-01-10T06:09:22.471Z,94.74
2018-01-10T06:10:22.458Z,94.74
2018-01-10T06:11:22.455Z,94.65
2018-01-10T06:12:22.445Z,94.65
2018-01-10T06:13:22.434Z,95.22
2018-01-10T06:14:22.433Z,95.51
2018-01-10T06:15:22.424Z,95.08
2018-01-10T06:16:22.414Z,95.32
2018-01-10T06:17:22.407Z,95.75
2018-01-10T06:18:22.396Z,95.65
2018-01-10T06:19:22.394Z,95.56
2018-01-10T06:20:22.386Z,96.12
2018-01-10T06:21:22.389Z,96.03
2018-01-10T06:22:22.376Z,96.12
2018-01-10T06:23:22.370Z,96.41
2018-01-10T06:24:22.349Z,96.79
2018-01-10T06:25:22.346Z,96.79
2018-01-10T06:26:22.370Z,96.79
2018-01-10T06:27:22.335Z,96.60
2018-01-10T06:28:22.331Z,96.69
2018-01-10T06:29:22.318Z,96.50
2018-01-10T06:30:22.312Z,96.03
2018-01-10T06:31:22.309Z,96.60
2018-01-10T06:32:25.062Z,96.50
2018-01-10T06:33:22.295Z,96.60
2018-01-10T06:34:22.283Z,96.79
2018-01-10T06:35:22.275Z,96.60
2018-01-10T06:36:22.280Z,96.69
2018-01-10T06:37:22.259Z,96.79
2018-01-10T06:38:22.260Z,96.79
2018-01-10T06:39:22.285Z,96.98
2018-01-10T06:40:22.272Z,96.79
2018-01-10T06:41:22.245Z,97.45
2018-01-10T06:42:22.227Z,97.55
2018-01-10T06:43:22.229Z,97.36
2018-01-10T06:44:22.216Z,97.74
2018-01-10T06:45:22.197Z,97.64
2018-01-10T06:46:22.200Z,97.45
2018-01-10T06:47:22.189Z,97.93
2018-01-10T06:48:22.180Z,97.88
2018-01-10T06:49:22.181Z,97.08
2018-01-10T06:50:22.163Z,96.69
2018-01-10T06:51:22.156Z,96.50
2018-01-10T06:52:22.153Z,96.79
2018-01-10T06:53:22.139Z,96.50
2018-01-10T06:54:22.146Z,96.79
2018-01-10T06:55:22.129Z,96.60
2018-01-10T06:56:22.124Z,96.98
2018-01-10T06:57:22.123Z,97.08
2018-01-10T06:58:22.105Z,96.50
2018-01-10T06:59:22.104Z,97.17
2018-01-10T07:00:22.088Z,97.41
2018-01-10T07:01:22.090Z,97.13
2018-01-10T07:02:22.072Z,96.26
2018-01-10T07:03:22.076Z,96.26
2018-01-10T07:04:22.067Z,95.89
2018-01-10T07:05:22.063Z,95.89
2018-01-10T07:06:22.055Z,96.08
2018-01-10T07:07:22.041Z,95.79
2018-01-10T07:08:22.035Z,95.60
2018-01-10T07:09:22.064Z,95.89
2018-01-10T07:10:22.018Z,95.60
2018-01-10T07:11:22.009Z,95.70
2018-01-10T07:12:22.010Z,95.60
2018-01-10T07:13:21.992Z,95.70
2018-01-10T07:14:21.988Z,95.89
2018-01-10T07:15:22.582Z,95.51
2018-01-10T07:16:21.971Z,95.41
2018-01-10T07:17:21.964Z,95.12
2018-01-10T07:18:21.975Z,95.12
2018-01-10T07:19:22.581Z,95.12
2018-01-10T07:20:21.944Z,95.03
2018-01-10T07:21:24.593Z,95.60
2018-01-10T07:22:21.928Z,94.46
2018-01-10T07:23:21.927Z,94.65
2018-01-10T07:24:21.917Z,94.56
2018-01-10T07:25:21.911Z,95.60
2018-01-10T07:26:21.902Z,95.32
2018-01-10T07:27:21.904Z,94.84
2018-01-10T07:28:21.879Z,94.46
2018-01-10T07:29:28.588Z,95.22
2018-01-10T07:30:22.589Z,94.56
2018-01-10T07:31:22.589Z,94.56
2018-01-10T07:32:21.856Z,94.46
2018-01-10T07:33:21.859Z,94.56
2018-01-10T07:34:21.859Z,94.56
2018-01-10T07:35:21.832Z,94.46
2018-01-10T07:36:21.837Z,94.84
2018-01-10T07:37:21.827Z,94.65
2018-01-10T07:38:21.808Z,94.65
2018-01-10T07:39:21.810Z,94.84
2018-01-10T07:40:21.800Z,94.84
2018-01-10T07:41:21.795Z,94.65
2018-01-10T07:42:21.784Z,94.84
2018-01-10T07:43:21.783Z,94.56
2018-01-10T07:44:21.775Z,94.46
2018-01-10T07:45:21.762Z,94.18
2018-01-10T07:46:21.752Z,94.18
2018-01-10T07:47:21.740Z,94.08
2018-01-10T07:48:21.751Z,94.37
2018-01-10T07:49:22.597Z,93.89
2018-01-10T07:50:21.729Z,94.37
2018-01-10T07:51:21.725Z,93.98
2018-01-10T07:52:21.713Z,94.46
2018-01-10T07:53:21.708Z,93.79
2018-01-10T07:54:21.706Z,93.79
2018-01-10T07:55:21.690Z,93.79
2018-01-10T07:56:21.688Z,93.32
2018-01-10T07:57:21.671Z,93.60
2018-01-10T07:58:21.672Z,93.32
2018-01-10T07:59:21.666Z,93.70
2018-01-10T08:00:21.656Z,93.51
2018-01-10T08:01:21.654Z,93.41
2018-01-10T08:02:21.647Z,93.41
2018-01-10T08:03:21.634Z,93.51
2018-01-10T08:04:21.628Z,93.60
2018-01-10T08:05:21.617Z,93.51
2018-01-10T08:06:21.612Z,93.41
2018-01-10T08:07:21.607Z,93.51
2018-01-10T08:08:21.603Z,93.79
2018-01-10T08:09:21.587Z,93.04
2018-01-10T08:10:21.586Z,93.23
2018-01-10T08:11:21.591Z,93.13
2018-01-10T08:12:21.583Z,93.32
2018-01-10T08:13:21.562Z,93.04
2018-01-10T08:14:21.558Z,92.84
2018-01-10T08:15:21.549Z,92.46
2018-01-10T08:16:21.541Z,92.36
2018-01-10T08:17:21.528Z,92.65
2018-01-10T08:18:21.528Z,93.13
2018-01-10T08:19:21.518Z,92.94
2018-01-10T08:20:21.513Z,92.75
2018-01-10T08:21:21.505Z,92.56
2018-01-10T08:22:21.492Z,92.65
2018-01-10T08:23:21.525Z,92.65
2018-01-10T08:24:21.484Z,92.65
2018-01-10T08:25:21.471Z,92.08
2018-01-10T08:26:21.467Z,92.27
2018-01-10T08:27:21.460Z,91.80
2018-01-10T08:28:21.452Z,91.70
2018-01-10T08:29:21.444Z,92.13
2018-01-10T08:30:21.447Z,91.75
2018-01-10T08:31:21.437Z,91.75
2018-01-10T08:32:21.428Z,91.61
2018-01-10T08:33:21.418Z,91.17
2018-01-10T08:34:21.414Z,91.42
2018-01-10T08:35:21.408Z,91.84
2018-01-10T08:36:21.402Z,91.37
2018-01-10T08:37:21.389Z,91.22
2018-01-10T08:38:21.382Z,91.37
2018-01-10T08:39:21.375Z,91.46
2018-01-10T08:40:21.365Z,91.17
2018-01-10T08:41:21.356Z,91.65
2018-01-10T08:42:21.355Z,91.46
2018-01-10T08:43:21.353Z,90.75
2018-01-10T08:44:21.345Z,90.89
2018-01-10T08:45:21.338Z,91.27
2018-01-10T08:46:21.332Z,90.89
2018-01-10T08:47:21.328Z,90.99
2018-01-10T08:48:21.309Z,90.51
2018-01-10T08:49:21.304Z,90.51
2018-01-10T08:50:21.302Z,90.80
2018-01-10T08:51:21.297Z,90.89
2018-01-10T08:52:21.287Z,90.70
2018-01-10T08:53:21.285Z,90.51
2018-01-10T08:54:21.282Z,90.70
2018-01-10T08:55:21.261Z,90.70
2018-01-10T08:56:21.257Z,90.70
2018-01-10T08:57:21.254Z,90.70
2018-01-10T08:58:21.243Z,90.70
2018-01-10T08:59:21.240Z,90.70
2018-01-10T09:00:21.228Z,90.89
2018-01-10T09:01:21.230Z,90.22
2018-01-10T09:02:21.219Z,89.84
2018-01-10T09:03:21.209Z,90.13
2018-01-10T09:04:21.206Z,90.22
2018-01-10T09:05:21.192Z,90.32
2018-01-10T09:06:21.186Z,89.84
2018-01-10T09:07:21.181Z,89.75
2018-01-10T09:08:21.179Z,89.84
2018-01-10T09:09:21.168Z,90.32
2018-01-10T09:10:21.164Z,89.94
2018-01-10T09:11:21.158Z,89.84
2018-01-10T09:12:21.153Z,89.94
2018-01-10T09:13:21.139Z,90.03
2018-01-10T09:14:21.134Z,89.18
2018-01-10T09:15:21.128Z,89.27
2018-01-10T09:16:21.124Z,89.65
2018-01-10T09:17:21.132Z,89.27
2018-01-10T09:18:21.103Z,89.84
2018-01-10T09:19:21.098Z,89.27
2018-01-10T09:20:21.094Z,89.75
2018-01-10T09:21:21.091Z,89.08
2018-01-10T09:22:21.077Z,89.47
2018-01-10T09:23:21.066Z,89.75
2018-01-10T09:24:21.062Z,89.75
2018-01-10T09:25:21.054Z,89.65
2018-01-10T09:26:21.052Z,89.65
2018-01-10T09:27:21.042Z,89.08
2018-01-10T09:28:21.040Z,88.89
2018-01-10T09:29:21.044Z,89.75
2018-01-10T09:30:21.021Z,89.47
2018-01-10T09:31:21.021Z,89.27
2018-01-10T09:32:21.009Z,89.27
2018-01-10T09:33:20.994Z,88.89
2018-01-10T09:34:20.990Z,88.89
2018-01-10T09:35:20.989Z,88.99
2018-01-10T09:36:20.979Z,88.70
2018-01-10T09:37:20.968Z,88.32
2018-01-10T09:38:21.629Z,88.32
2018-01-10T09:39:20.964Z,88.13
2018-01-10T09:40:20.951Z,87.65
2018-01-10T09:41:20.954Z,87.65
2018-01-10T09:42:28.735Z,87.37
2018-01-10T09:45:14.067Z,86.99
2018-01-10T09:46:13.097Z,87.32
2018-01-10T09:48:58.485Z,86.84
2018-01-10T09:49:58.398Z,86.75
2018-01-10T09:52:43.756Z,86.18
2018-01-10T09:53:34.971Z,85.60
2018-01-10T09:56:19.370Z,85.22
2018-01-10T09:57:19.320Z,85.32
2018-01-10T10:00:03.713Z,85.03
2018-01-10T10:01:03.687Z,84.94
2018-01-10T10:03:48.058Z,84.50
2018-01-10T10:04:48.040Z,84.31
2018-01-10T10:07:32.410Z,83.45
2018-01-10T10:08:32.389Z,83.55
2018-01-10T10:11:15.796Z,83.55
2018-01-10T10:12:16.341Z,83.07
2018-01-10T10:15:00.173Z,83.36
2018-01-10T10:16:00.131Z,83.26
2018-01-10T10:18:44.496Z,82.69
2018-01-10T10:19:44.480Z,82.89
2018-01-10T10:22:28.848Z,83.07
2018-01-10T10:23:28.812Z,82.69
2018-01-10T10:26:12.223Z,82.89
2018-01-10T10:27:12.190Z,82.41
2018-01-10T10:29:56.575Z,82.31
2018-01-10T10:30:56.550Z,82.50
2018-01-10T10:33:40.924Z,82.41
2018-01-10T10:34:40.897Z,82.50
2018-01-10T10:37:25.421Z,82.60
2018-01-10T10:38:25.237Z,82.41
2018-01-10T10:41:08.644Z,82.41
2018-01-10T10:42:08.633Z,82.50
2018-01-10T10:44:52.993Z,82.50
2018-01-10T10:45:52.962Z,82.69
2018-01-10T10:48:36.509Z,82.21
2018-01-10T10:49:36.345Z,81.93
2018-01-10T10:52:21.617Z,82.60
2018-01-10T10:53:21.586Z,82.69
2018-01-10T10:56:06.186Z,83.17
2018-01-10T10:57:05.918Z,83.36
2018-01-10T10:59:49.338Z,83.45
2018-01-10T11:00:49.271Z,83.65
2018-01-10T11:03:33.665Z,83.45
2018-01-10T11:04:33.646Z,82.69
2018-01-10T11:05:33.614Z,83.07
2018-01-10T11:06:33.619Z,83.65
2018-01-10T11:07:33.624Z,83.55
2018-01-10T11:08:33.603Z,83.45
2018-01-10T11:09:33.601Z,83.26
2018-01-10T11:10:33.590Z,83.45
2018-01-10T11:11:33.607Z,83.74
2018-01-10T11:12:33.707Z,83.07
2018-01-10T11:13:33.568Z,82.79
2018-01-10T11:14:33.571Z,82.98
2018-01-10T11:15:33.558Z,82.60
2018-01-10T11:16:33.558Z,83.07
2018-01-10T11:17:33.560Z,83.26
2018-01-10T11:18:33.552Z,82.89
2018-01-10T11:19:33.549Z,82.89
2018-01-10T11:20:33.534Z,83.26
2018-01-10T11:21:33.524Z,83.55
2018-01-10T11:22:33.567Z,83.45
2018-01-10T11:23:33.519Z,83.74
2018-01-10T11:24:33.514Z,83.45
2018-01-10T11:25:33.501Z,83.84
2018-01-10T11:26:33.493Z,84.50
2018-01-10T11:27:33.493Z,84.98
2018-01-10T11:28:33.489Z,84.60
2018-01-10T11:29:33.480Z,85.08
2018-01-10T11:30:33.479Z,85.32
2018-01-10T11:31:33.480Z,85.32
2018-01-10T11:32:33.465Z,85.60
2018-01-10T11:33:33.459Z,85.51
2018-01-10T11:34:33.454Z,85.51
2018-01-10T11:35:33.446Z,86.08
2018-01-10T11:36:33.444Z,87.32
2018-01-10T11:37:33.436Z,86.18
2018-01-10T11:38:34.214Z,86.65
2018-01-10T11:39:33.421Z,86.46
2018-01-10T11:40:33.428Z,87.03
2018-01-10T11:41:33.411Z,86.75
2018-01-10T11:42:33.403Z,86.75
2018-01-10T11:43:33.399Z,86.75
2018-01-10T11:44:33.402Z,87.41
2018-01-10T11:45:33.389Z,87.89
2018-01-10T11:46:33.385Z,87.51
2018-01-10T11:47:33.374Z,87.60
2018-01-10T11:48:33.366Z,86.65
2018-01-10T11:49:33.365Z,85.89
2018-01-10T11:50:33.358Z,86.08
2018-01-10T11:51:33.354Z,86.46
2018-01-10T11:52:33.342Z,86.08
2018-01-10T11:53:33.338Z,86.08
2018-01-10T11:54:33.332Z,86.88
2018-01-10T11:55:33.322Z,85.64
2018-01-10T11:56:33.326Z,85.55
2018-01-10T11:57:33.317Z,85.03
2018-01-10T11:58:33.307Z,84.84
2018-01-10T11:59:33.305Z,85.08
2018-01-10T12:00:33.290Z,85.27
2018-01-10T12:01:33.300Z,84.88
2018-01-10T12:02:33.286Z,84.98
2018-01-10T12:03:33.280Z,85.36
2018-01-10T12:04:33.277Z,85.17
2018-01-10T12:05:33.270Z,85.46
2018-01-10T12:06:33.265Z,84.98
2018-01-10T12:07:33.259Z,84.88
2018-01-10T12:08:33.244Z,84.98
2018-01-10T12:09:33.253Z,84.50
2018-01-10T12:10:33.243Z,83.93
2018-01-10T12:11:33.235Z,83.93
2018-01-10T12:12:33.232Z,84.03
2018-01-10T12:13:33.231Z,83.93
2018-01-10T12:14:33.220Z,83.41
2018-01-10T12:15:33.214Z,82.41
2018-01-10T12:16:33.207Z,82.03
2018-01-10T12:17:33.209Z,82.03
2018-01-10T12:18:33.196Z,81.46
2018-01-10T12:19:33.189Z,81.17
2018-01-10T12:20:33.189Z,81.55
2018-01-10T12:21:33.172Z,81.55
2018-01-10T12:22:33.171Z,80.60
2018-01-10T12:23:33.166Z,81.17
2018-01-10T12:24:33.160Z,80.41
2018-01-10T12:25:33.158Z,80.60
2018-01-10T12:26:33.154Z,80.69
2018-01-10T12:27:33.156Z,80.60
2018-01-10T12:28:33.138Z,80.69
2018-01-10T12:29:33.137Z,80.50
2018-01-10T12:30:33.137Z,80.41
2018-01-10T12:31:33.126Z,80.50
2018-01-10T12:32:33.121Z,80.41
2018-01-10T12:33:33.110Z,80.41
2018-01-10T12:34:33.114Z,79.36
2018-01-10T12:35:33.111Z,78.88
2018-01-10T12:36:33.095Z,79.74
2018-01-10T12:37:33.091Z,79.46
2018-01-10T12:38:33.081Z,79.17
2018-01-10T12:39:33.078Z,78.88
2018-01-10T12:40:33.070Z,78.59
2018-01-10T12:41:33.064Z,79.17
2018-01-10T12:42:33.061Z,79.21
2018-01-10T12:43:33.056Z,78.83
2018-01-10T12:44:33.051Z,79.11
2018-01-10T12:45:33.047Z,78.92
2018-01-10T12:46:33.037Z,78.44
2018-01-10T12:47:33.039Z,78.54
2018-01-10T12:48:33.048Z,78.54
2018-01-10T12:49:33.023Z,78.83
2018-01-10T12:50:33.017Z,78.44
2018-01-10T12:51:33.011Z,78.25
2018-01-10T12:52:33.004Z,79.02
2018-01-10T12:53:32.993Z,78.25
2018-01-10T12:54:33.008Z,78.06
2018-01-10T12:55:32.990Z,78.06
2018-01-10T12:56:32.981Z,78.54
2018-01-10T12:57:32.983Z,78.16
2018-01-10T12:58:32.980Z,78.54
2018-01-10T12:59:32.992Z,78.06
2018-01-10T13:00:32.967Z,77.59
2018-01-10T13:01:32.965Z,77.11
2018-01-10T13:02:32.959Z,77.20
2018-01-10T13:03:32.955Z,76.44
2018-01-10T13:04:32.943Z,76.54
2018-01-10T13:05:32.940Z,76.35
2018-01-10T13:06:32.929Z,75.96
2018-01-10T13:07:32.932Z,75.68
2018-01-10T13:08:32.922Z,76.25
2018-01-10T13:09:32.963Z,76.44
2018-01-10T13:10:32.909Z,76.54
2018-01-10T13:11:32.920Z,76.92
2018-01-10T13:12:32.900Z,76.35
2018-01-10T13:13:32.897Z,76.06
2018-01-10T13:14:33.753Z,76.64
2018-01-10T13:15:32.893Z,77.40
2018-01-10T13:16:32.884Z,76.82
2018-01-10T13:17:32.875Z,76.82
2018-01-10T13:18:32.862Z,77.30
2018-01-10T13:19:32.864Z,77.20
2018-01-10T13:20:32.853Z,77.49
2018-01-10T13:21:32.857Z,77.78
2018-01-10T13:22:32.858Z,76.92
2018-01-10T13:23:32.845Z,76.54
2018-01-10T13:24:33.755Z,77.40
2018-01-10T13:25:32.830Z,77.40
2018-01-10T13:26:32.832Z,77.97
2018-01-10T13:27:32.825Z,77.78
2018-01-10T13:28:32.837Z,77.30
2018-01-10T13:29:32.809Z,77.40
2018-01-10T13:30:32.818Z,77.20